sensor_id;sensor_type;location;lat;lon;timestamp;temperature;humidity
2941;DHT22;1480;51.456;6.670;2023-02-01T00:02:03;6.80;91.90
2941;DHT22;1480;51.456;6.670;2023-02-01T00:04:30;6.80;91.50
2941;DHT22;1480;51.456;6.670;2023-02-01T00:06:57;6.90;90.80
2941;DHT22;1480;51.456;6.670;2023-02-01T00:09:24;6.80;89.90
2941;DHT22;1480;51.456;6.670;2023-02-01T00:11:52;6.80;90.50
2941;DHT22;1480;51.456;6.670;2023-02-01T00:14:19;6.90;89.30
2941;DHT22;1480;51.456;6.670;2023-02-01T00:16:46;6.80;89.60
2941;DHT22;1480;51.456;6.670;2023-02-01T00:19:14;6.90;89.00
2941;DHT22;1480;51.456;6.670;2023-02-01T00:21:41;6.90;89.60
2941;DHT22;1480;51.456;6.670;2023-02-01T00:24:10;7.10;89.40
2941;DHT22;1480;51.456;6.670;2023-02-01T00:26:39;7.10;88.50
2941;DHT22;1480;51.456;6.670;2023-02-01T00:29:11;7.00;87.80
2941;DHT22;1480;51.456;6.670;2023-02-01T00:31:39;7.00;88.00
2941;DHT22;1480;51.456;6.670;2023-02-01T00:34:06;6.90;87.60
2941;DHT22;1480;51.456;6.670;2023-02-01T00:36:34;7.00;87.80
2941;DHT22;1480;51.456;6.670;2023-02-01T00:39:04;6.80;88.20
2941;DHT22;1480;51.456;6.670;2023-02-01T00:41:31;6.90;88.70
2941;DHT22;1480;51.456;6.670;2023-02-01T00:43:57;7.00;88.60
2941;DHT22;1480;51.456;6.670;2023-02-01T00:46:26;7.00;88.50
2941;DHT22;1480;51.456;6.670;2023-02-01T00:48:53;6.90;88.40
2941;DHT22;1480;51.456;6.670;2023-02-01T00:51:22;6.90;88.70
2941;DHT22;1480;51.456;6.670;2023-02-01T00:53:50;6.80;89.20
2941;DHT22;1480;51.456;6.670;2023-02-01T00:56:17;7.00;89.40
2941;DHT22;1480;51.456;6.670;2023-02-01T00:58:44;7.00;89.80
2941;DHT22;1480;51.456;6.670;2023-02-01T01:01:14;7.00;90.20
2941;DHT22;1480;51.456;6.670;2023-02-01T01:03:44;7.00;90.40
2941;DHT22;1480;51.456;6.670;2023-02-01T01:06:13;7.10;90.70
2941;DHT22;1480;51.456;6.670;2023-02-01T01:08:41;7.10;90.60
2941;DHT22;1480;51.456;6.670;2023-02-01T01:11:11;7.10;90.40
2941;DHT22;1480;51.456;6.670;2023-02-01T01:13:38;7.00;90.60
2941;DHT22;1480;51.456;6.670;2023-02-01T01:16:07;6.90;90.70
2941;DHT22;1480;51.456;6.670;2023-02-01T01:18:35;7.20;90.10
2941;DHT22;1480;51.456;6.670;2023-02-01T01:21:06;7.10;90.50
2941;DHT22;1480;51.456;6.670;2023-02-01T01:23:33;7.10;90.10
2941;DHT22;1480;51.456;6.670;2023-02-01T01:26:04;7.00;90.20
2941;DHT22;1480;51.456;6.670;2023-02-01T01:28:31;7.00;89.70
2941;DHT22;1480;51.456;6.670;2023-02-01T01:30:58;7.10;89.80
2941;DHT22;1480;51.456;6.670;2023-02-01T01:33:25;7.00;89.10
2941;DHT22;1480;51.456;6.670;2023-02-01T01:35:52;7.10;89.10
2941;DHT22;1480;51.456;6.670;2023-02-01T01:38:20;7.10;89.00
2941;DHT22;1480;51.456;6.670;2023-02-01T01:40:47;7.10;88.80
2941;DHT22;1480;51.456;6.670;2023-02-01T01:43:18;7.00;88.30
2941;DHT22;1480;51.456;6.670;2023-02-01T01:45:48;7.20;88.00
2941;DHT22;1480;51.456;6.670;2023-02-01T01:48:18;7.00;88.10
2941;DHT22;1480;51.456;6.670;2023-02-01T01:50:50;7.00;87.60
2941;DHT22;1480;51.456;6.670;2023-02-01T01:53:23;6.80;87.50
2941;DHT22;1480;51.456;6.670;2023-02-01T01:55:53;7.00;87.30
2941;DHT22;1480;51.456;6.670;2023-02-01T01:58:24;6.90;86.80
2941;DHT22;1480;51.456;6.670;2023-02-01T02:00:53;6.80;87.10
2941;DHT22;1480;51.456;6.670;2023-02-01T02:03:24;6.80;86.60
2941;DHT22;1480;51.456;6.670;2023-02-01T02:05:54;7.00;86.30
2941;DHT22;1480;51.456;6.670;2023-02-01T02:08:24;6.80;87.00
2941;DHT22;1480;51.456;6.670;2023-02-01T02:10:52;6.70;86.20
2941;DHT22;1480;51.456;6.670;2023-02-01T02:13:31;6.80;86.60
2941;DHT22;1480;51.456;6.670;2023-02-01T02:16:10;6.60;86.50
2941;DHT22;1480;51.456;6.670;2023-02-01T02:18:47;6.50;86.60
2941;DHT22;1480;51.456;6.670;2023-02-01T02:21:22;6.40;86.70
2941;DHT22;1480;51.456;6.670;2023-02-01T02:27:07;6.50;86.50
2941;DHT22;1480;51.456;6.670;2023-02-01T02:32:57;6.50;86.50
2941;DHT22;1480;51.456;6.670;2023-02-01T02:35:34;6.30;85.90
2941;DHT22;1480;51.456;6.670;2023-02-01T02:38:12;6.40;86.10
2941;DHT22;1480;51.456;6.670;2023-02-01T02:40:46;6.30;86.70
2941;DHT22;1480;51.456;6.670;2023-02-01T02:43:20;6.10;86.60
2941;DHT22;1480;51.456;6.670;2023-02-01T02:46:09;5.90;87.00
2941;DHT22;1480;51.456;6.670;2023-02-01T02:49:02;6.10;87.10
2941;DHT22;1480;51.456;6.670;2023-02-01T02:51:37;5.90;87.10
2941;DHT22;1480;51.456;6.670;2023-02-01T02:54:29;6.00;87.40
2941;DHT22;1480;51.456;6.670;2023-02-01T02:57:20;5.80;87.20
2941;DHT22;1480;51.456;6.670;2023-02-01T03:00:10;5.80;87.10
2941;DHT22;1480;51.456;6.670;2023-02-01T03:02:55;6.00;86.60
2941;DHT22;1480;51.456;6.670;2023-02-01T03:05:42;6.10;86.50
2941;DHT22;1480;51.456;6.670;2023-02-01T03:08:14;6.20;86.70
2941;DHT22;1480;51.456;6.670;2023-02-01T03:10:50;6.00;86.10
2941;DHT22;1480;51.456;6.670;2023-02-01T03:13:25;6.10;86.50
2941;DHT22;1480;51.456;6.670;2023-02-01T03:15:59;6.10;86.60
2941;DHT22;1480;51.456;6.670;2023-02-01T03:18:33;6.20;86.10
2941;DHT22;1480;51.456;6.670;2023-02-01T03:21:06;6.30;86.30
2941;DHT22;1480;51.456;6.670;2023-02-01T03:23:36;6.20;85.80
2941;DHT22;1480;51.456;6.670;2023-02-01T03:26:06;6.50;86.40
2941;DHT22;1480;51.456;6.670;2023-02-01T03:28:35;6.40;85.90
2941;DHT22;1480;51.456;6.670;2023-02-01T03:31:05;6.50;86.10
2941;DHT22;1480;51.456;6.670;2023-02-01T03:33:32;6.50;85.40
2941;DHT22;1480;51.456;6.670;2023-02-01T03:36:16;6.60;85.60
2941;DHT22;1480;51.456;6.670;2023-02-01T03:38:50;6.70;85.40
2941;DHT22;1480;51.456;6.670;2023-02-01T03:41:24;6.80;85.10
2941;DHT22;1480;51.456;6.670;2023-02-01T03:44:01;6.90;85.40
2941;DHT22;1480;51.456;6.670;2023-02-01T03:46:33;6.60;85.50
2941;DHT22;1480;51.456;6.670;2023-02-01T03:49:06;6.90;85.70
2941;DHT22;1480;51.456;6.670;2023-02-01T03:51:36;6.90;85.20
2941;DHT22;1480;51.456;6.670;2023-02-01T03:54:08;6.90;85.40
2941;DHT22;1480;51.456;6.670;2023-02-01T03:56:37;6.70;85.30
2941;DHT22;1480;51.456;6.670;2023-02-01T03:59:05;6.70;85.20
2941;DHT22;1480;51.456;6.670;2023-02-01T04:01:34;6.90;85.00
2941;DHT22;1480;51.456;6.670;2023-02-01T04:04:01;6.80;85.30
2941;DHT22;1480;51.456;6.670;2023-02-01T04:06:29;6.70;85.10
2941;DHT22;1480;51.456;6.670;2023-02-01T04:09:00;6.70;85.40
2941;DHT22;1480;51.456;6.670;2023-02-01T04:11:29;6.70;85.00
2941;DHT22;1480;51.456;6.670;2023-02-01T04:13:56;6.50;85.40
2941;DHT22;1480;51.456;6.670;2023-02-01T04:16:23;6.60;85.60
2941;DHT22;1480;51.456;6.670;2023-02-01T04:18:50;6.60;85.70
2941;DHT22;1480;51.456;6.670;2023-02-01T04:21:17;6.50;86.00
2941;DHT22;1480;51.456;6.670;2023-02-01T04:23:44;6.50;86.50
2941;DHT22;1480;51.456;6.670;2023-02-01T04:26:10;6.60;86.70
2941;DHT22;1480;51.456;6.670;2023-02-01T04:28:39;6.60;86.50
2941;DHT22;1480;51.456;6.670;2023-02-01T04:31:06;6.60;86.40
2941;DHT22;1480;51.456;6.670;2023-02-01T04:33:32;6.70;86.50
2941;DHT22;1480;51.456;6.670;2023-02-01T04:35:59;6.70;86.50
2941;DHT22;1480;51.456;6.670;2023-02-01T04:38:26;6.60;86.00
2941;DHT22;1480;51.456;6.670;2023-02-01T04:40:54;6.80;86.70
2941;DHT22;1480;51.456;6.670;2023-02-01T04:43:21;6.80;86.10
2941;DHT22;1480;51.456;6.670;2023-02-01T04:45:50;6.90;86.00
2941;DHT22;1480;51.456;6.670;2023-02-01T04:48:18;6.80;86.10
2941;DHT22;1480;51.456;6.670;2023-02-01T04:50:46;6.80;86.20
2941;DHT22;1480;51.456;6.670;2023-02-01T04:53:13;6.80;86.00
2941;DHT22;1480;51.456;6.670;2023-02-01T04:55:40;6.80;85.80
2941;DHT22;1480;51.456;6.670;2023-02-01T04:58:07;6.70;86.20
2941;DHT22;1480;51.456;6.670;2023-02-01T05:00:35;6.60;86.10
2941;DHT22;1480;51.456;6.670;2023-02-01T05:03:03;6.50;86.50
2941;DHT22;1480;51.456;6.670;2023-02-01T05:05:30;6.60;86.80
2941;DHT22;1480;51.456;6.670;2023-02-01T05:07:57;6.50;87.00
2941;DHT22;1480;51.456;6.670;2023-02-01T05:10:24;6.50;86.70
2941;DHT22;1480;51.456;6.670;2023-02-01T05:12:51;6.70;86.90
2941;DHT22;1480;51.456;6.670;2023-02-01T05:15:35;6.70;86.60
2941;DHT22;1480;51.456;6.670;2023-02-01T05:18:03;6.50;87.40
2941;DHT22;1480;51.456;6.670;2023-02-01T05:20:30;6.50;87.40
2941;DHT22;1480;51.456;6.670;2023-02-01T05:22:57;6.40;87.30
2941;DHT22;1480;51.456;6.670;2023-02-01T05:25:24;6.50;87.80
2941;DHT22;1480;51.456;6.670;2023-02-01T05:27:52;6.40;87.70
2941;DHT22;1480;51.456;6.670;2023-02-01T05:30:19;6.30;87.30
2941;DHT22;1480;51.456;6.670;2023-02-01T05:32:49;6.50;87.40
2941;DHT22;1480;51.456;6.670;2023-02-01T05:35:18;6.40;87.80
2941;DHT22;1480;51.456;6.670;2023-02-01T05:37:45;6.30;87.90
2941;DHT22;1480;51.456;6.670;2023-02-01T05:40:12;6.40;87.90
2941;DHT22;1480;51.456;6.670;2023-02-01T05:42:39;6.50;87.80
2941;DHT22;1480;51.456;6.670;2023-02-01T05:45:07;6.40;87.80
2941;DHT22;1480;51.456;6.670;2023-02-01T05:47:34;6.40;87.60
2941;DHT22;1480;51.456;6.670;2023-02-01T05:50:01;6.20;87.80
2941;DHT22;1480;51.456;6.670;2023-02-01T05:52:29;6.20;87.90
2941;DHT22;1480;51.456;6.670;2023-02-01T05:54:56;6.40;88.00
2941;DHT22;1480;51.456;6.670;2023-02-01T05:57:23;6.10;88.30
2941;DHT22;1480;51.456;6.670;2023-02-01T05:59:50;6.10;88.00
2941;DHT22;1480;51.456;6.670;2023-02-01T06:02:17;6.30;88.30
2941;DHT22;1480;51.456;6.670;2023-02-01T06:04:44;6.40;87.60
2941;DHT22;1480;51.456;6.670;2023-02-01T06:07:11;6.50;87.80
2941;DHT22;1480;51.456;6.670;2023-02-01T06:09:39;6.60;87.40
2941;DHT22;1480;51.456;6.670;2023-02-01T06:12:06;6.50;87.40
2941;DHT22;1480;51.456;6.670;2023-02-01T06:14:34;6.80;87.30
2941;DHT22;1480;51.456;6.670;2023-02-01T06:17:00;6.70;87.50
2941;DHT22;1480;51.456;6.670;2023-02-01T06:19:28;6.80;86.60
2941;DHT22;1480;51.456;6.670;2023-02-01T06:21:55;6.70;86.80
2941;DHT22;1480;51.456;6.670;2023-02-01T06:24:22;6.80;86.60
2941;DHT22;1480;51.456;6.670;2023-02-01T06:26:51;6.80;86.70
2941;DHT22;1480;51.456;6.670;2023-02-01T06:29:17;6.70;86.70
2941;DHT22;1480;51.456;6.670;2023-02-01T06:31:44;6.80;85.90
2941;DHT22;1480;51.456;6.670;2023-02-01T06:34:11;6.80;86.00
2941;DHT22;1480;51.456;6.670;2023-02-01T06:36:38;6.70;86.20
2941;DHT22;1480;51.456;6.670;2023-02-01T06:39:06;6.90;85.70
2941;DHT22;1480;51.456;6.670;2023-02-01T06:41:32;7.00;85.10
2941;DHT22;1480;51.456;6.670;2023-02-01T06:44:01;7.00;85.80
2941;DHT22;1480;51.456;6.670;2023-02-01T06:46:28;7.00;85.60
2941;DHT22;1480;51.456;6.670;2023-02-01T06:48:55;7.00;85.50
2941;DHT22;1480;51.456;6.670;2023-02-01T06:51:24;7.00;85.70
2941;DHT22;1480;51.456;6.670;2023-02-01T06:53:51;7.00;85.60
2941;DHT22;1480;51.456;6.670;2023-02-01T06:56:18;7.10;85.70
2941;DHT22;1480;51.456;6.670;2023-02-01T06:58:46;7.10;85.50
2941;DHT22;1480;51.456;6.670;2023-02-01T07:01:15;7.10;85.40
2941;DHT22;1480;51.456;6.670;2023-02-01T07:03:43;7.00;85.50
2941;DHT22;1480;51.456;6.670;2023-02-01T07:06:13;7.10;85.50
2941;DHT22;1480;51.456;6.670;2023-02-01T07:08:40;7.10;85.80
2941;DHT22;1480;51.456;6.670;2023-02-01T07:11:10;7.10;85.90
2941;DHT22;1480;51.456;6.670;2023-02-01T07:13:37;6.90;85.70
2941;DHT22;1480;51.456;6.670;2023-02-01T07:16:07;7.00;85.50
2941;DHT22;1480;51.456;6.670;2023-02-01T07:18:36;7.00;85.70
2941;DHT22;1480;51.456;6.670;2023-02-01T07:21:03;7.00;85.70
2941;DHT22;1480;51.456;6.670;2023-02-01T07:23:30;6.90;85.90
2941;DHT22;1480;51.456;6.670;2023-02-01T07:26:00;7.10;85.80
2941;DHT22;1480;51.456;6.670;2023-02-01T07:28:28;7.00;86.10
2941;DHT22;1480;51.456;6.670;2023-02-01T07:31:01;7.20;85.50
2941;DHT22;1480;51.456;6.670;2023-02-01T07:33:28;7.20;86.10
2941;DHT22;1480;51.456;6.670;2023-02-01T07:35:56;7.10;86.00
2941;DHT22;1480;51.456;6.670;2023-02-01T07:38:23;7.30;86.10
2941;DHT22;1480;51.456;6.670;2023-02-01T07:40:50;7.10;86.10
2941;DHT22;1480;51.456;6.670;2023-02-01T07:43:17;7.10;86.10
2941;DHT22;1480;51.456;6.670;2023-02-01T07:45:50;7.10;86.20
2941;DHT22;1480;51.456;6.670;2023-02-01T07:48:17;7.20;86.50
2941;DHT22;1480;51.456;6.670;2023-02-01T07:50:44;7.20;85.80
2941;DHT22;1480;51.456;6.670;2023-02-01T07:53:13;7.10;86.30
2941;DHT22;1480;51.456;6.670;2023-02-01T07:55:40;7.10;86.40
2941;DHT22;1480;51.456;6.670;2023-02-01T07:58:07;7.10;86.60
2941;DHT22;1480;51.456;6.670;2023-02-01T08:00:34;7.20;86.50
2941;DHT22;1480;51.456;6.670;2023-02-01T08:03:19;7.00;86.60
2941;DHT22;1480;51.456;6.670;2023-02-01T08:05:45;7.00;87.10
2941;DHT22;1480;51.456;6.670;2023-02-01T08:08:14;7.00;86.40
2941;DHT22;1480;51.456;6.670;2023-02-01T08:10:41;7.00;86.70
2941;DHT22;1480;51.456;6.670;2023-02-01T08:13:07;7.00;86.80
2941;DHT22;1480;51.456;6.670;2023-02-01T08:15:35;7.00;86.60
2941;DHT22;1480;51.456;6.670;2023-02-01T08:18:02;7.20;86.40
2941;DHT22;1480;51.456;6.670;2023-02-01T08:20:30;7.10;86.80
2941;DHT22;1480;51.456;6.670;2023-02-01T08:22:57;7.20;86.60
2941;DHT22;1480;51.456;6.670;2023-02-01T08:25:25;7.20;86.80
2941;DHT22;1480;51.456;6.670;2023-02-01T08:27:53;7.20;86.80
2941;DHT22;1480;51.456;6.670;2023-02-01T08:30:21;7.30;86.40
2941;DHT22;1480;51.456;6.670;2023-02-01T08:32:48;7.10;86.40
2941;DHT22;1480;51.456;6.670;2023-02-01T08:35:15;7.20;86.50
2941;DHT22;1480;51.456;6.670;2023-02-01T08:37:41;7.20;86.20
2941;DHT22;1480;51.456;6.670;2023-02-01T08:40:09;7.20;86.30
2941;DHT22;1480;51.456;6.670;2023-02-01T08:42:38;7.20;86.20
2941;DHT22;1480;51.456;6.670;2023-02-01T08:45:17;7.40;86.30
2941;DHT22;1480;51.456;6.670;2023-02-01T08:47:45;7.40;86.30
2941;DHT22;1480;51.456;6.670;2023-02-01T08:50:15;7.40;85.60
2941;DHT22;1480;51.456;6.670;2023-02-01T08:52:42;7.50;86.10
2941;DHT22;1480;51.456;6.670;2023-02-01T08:55:10;7.30;85.90
2941;DHT22;1480;51.456;6.670;2023-02-01T08:57:38;7.40;85.80
2941;DHT22;1480;51.456;6.670;2023-02-01T09:00:08;7.60;85.30
2941;DHT22;1480;51.456;6.670;2023-02-01T09:02:35;7.60;85.50
2941;DHT22;1480;51.456;6.670;2023-02-01T09:05:02;7.70;85.00
2941;DHT22;1480;51.456;6.670;2023-02-01T09:07:30;7.50;84.40
2941;DHT22;1480;51.456;6.670;2023-02-01T09:09:57;7.60;84.80
2941;DHT22;1480;51.456;6.670;2023-02-01T09:12:26;7.50;85.50
2941;DHT22;1480;51.456;6.670;2023-02-01T09:14:55;7.50;85.30
2941;DHT22;1480;51.456;6.670;2023-02-01T09:17:22;7.40;85.30
2941;DHT22;1480;51.456;6.670;2023-02-01T09:19:49;7.40;85.70
2941;DHT22;1480;51.456;6.670;2023-02-01T09:22:16;7.40;85.20
2941;DHT22;1480;51.456;6.670;2023-02-01T09:24:43;7.40;85.20
2941;DHT22;1480;51.456;6.670;2023-02-01T09:27:11;7.50;85.50
2941;DHT22;1480;51.456;6.670;2023-02-01T09:29:37;7.50;85.30
2941;DHT22;1480;51.456;6.670;2023-02-01T09:32:06;7.50;85.60
2941;DHT22;1480;51.456;6.670;2023-02-01T09:34:33;7.80;85.00
2941;DHT22;1480;51.456;6.670;2023-02-01T09:37:00;7.70;84.50
2941;DHT22;1480;51.456;6.670;2023-02-01T09:39:28;7.60;84.50
2941;DHT22;1480;51.456;6.670;2023-02-01T09:42:03;7.90;84.80
2941;DHT22;1480;51.456;6.670;2023-02-01T09:44:48;8.10;84.00
2941;DHT22;1480;51.456;6.670;2023-02-01T09:47:22;7.80;83.90
2941;DHT22;1480;51.456;6.670;2023-02-01T09:49:56;7.80;84.00
2941;DHT22;1480;51.456;6.670;2023-02-01T09:52:28;7.90;84.50
2941;DHT22;1480;51.456;6.670;2023-02-01T09:55:01;7.90;84.10
2941;DHT22;1480;51.456;6.670;2023-02-01T09:57:40;8.00;83.30
2941;DHT22;1480;51.456;6.670;2023-02-01T10:00:16;8.10;83.80
2941;DHT22;1480;51.456;6.670;2023-02-01T10:02:45;8.10;83.20
2941;DHT22;1480;51.456;6.670;2023-02-01T10:05:14;8.00;83.60
2941;DHT22;1480;51.456;6.670;2023-02-01T10:07:47;8.00;83.80
2941;DHT22;1480;51.456;6.670;2023-02-01T10:10:23;8.00;83.50
2941;DHT22;1480;51.456;6.670;2023-02-01T10:13:17;8.20;83.60
2941;DHT22;1480;51.456;6.670;2023-02-01T10:15:57;8.40;82.60
2941;DHT22;1480;51.456;6.670;2023-02-01T10:18:46;8.40;82.70
2941;DHT22;1480;51.456;6.670;2023-02-01T10:21:25;8.50;83.00
2941;DHT22;1480;51.456;6.670;2023-02-01T10:24:16;8.60;82.70
2941;DHT22;1480;51.456;6.670;2023-02-01T10:26:49;8.50;82.60
2941;DHT22;1480;51.456;6.670;2023-02-01T10:29:19;8.20;81.70
2941;DHT22;1480;51.456;6.670;2023-02-01T10:31:46;8.30;82.20
2941;DHT22;1480;51.456;6.670;2023-02-01T10:34:21;8.40;82.50
2941;DHT22;1480;51.456;6.670;2023-02-01T10:36:57;8.30;82.80
2941;DHT22;1480;51.456;6.670;2023-02-01T10:39:26;8.30;82.30
2941;DHT22;1480;51.456;6.670;2023-02-01T10:41:55;8.20;82.30
2941;DHT22;1480;51.456;6.670;2023-02-01T10:44:24;8.30;82.70
2941;DHT22;1480;51.456;6.670;2023-02-01T10:46:52;8.50;82.20
2941;DHT22;1480;51.456;6.670;2023-02-01T10:49:24;8.40;82.00
2941;DHT22;1480;51.456;6.670;2023-02-01T10:51:57;8.60;81.70
2941;DHT22;1480;51.456;6.670;2023-02-01T10:54:33;8.50;81.50
2941;DHT22;1480;51.456;6.670;2023-02-01T10:57:00;8.40;82.10
2941;DHT22;1480;51.456;6.670;2023-02-01T10:59:29;8.50;81.80
2941;DHT22;1480;51.456;6.670;2023-02-01T11:01:59;8.50;81.80
2941;DHT22;1480;51.456;6.670;2023-02-01T11:04:33;8.70;83.00
2941;DHT22;1480;51.456;6.670;2023-02-01T11:07:07;9.20;80.70
2941;DHT22;1480;51.456;6.670;2023-02-01T11:09:39;9.20;80.10
2941;DHT22;1480;51.456;6.670;2023-02-01T11:12:22;9.10;80.30
2941;DHT22;1480;51.456;6.670;2023-02-01T11:14:51;9.00;80.30
2941;DHT22;1480;51.456;6.670;2023-02-01T11:17:28;8.80;80.50
2941;DHT22;1480;51.456;6.670;2023-02-01T11:20:01;8.80;80.50
2941;DHT22;1480;51.456;6.670;2023-02-01T11:22:29;8.60;81.30
2941;DHT22;1480;51.456;6.670;2023-02-01T11:24:56;8.80;81.50
2941;DHT22;1480;51.456;6.670;2023-02-01T11:27:25;8.70;80.30
2941;DHT22;1480;51.456;6.670;2023-02-01T11:29:57;8.80;81.10
2941;DHT22;1480;51.456;6.670;2023-02-01T11:32:26;8.70;81.20
2941;DHT22;1480;51.456;6.670;2023-02-01T11:34:56;8.70;81.80
2941;DHT22;1480;51.456;6.670;2023-02-01T11:37:32;8.60;81.50
2941;DHT22;1480;51.456;6.670;2023-02-01T11:40:02;8.60;82.20
2941;DHT22;1480;51.456;6.670;2023-02-01T11:42:30;8.70;82.30
2941;DHT22;1480;51.456;6.670;2023-02-01T11:45:17;8.60;82.80
2941;DHT22;1480;51.456;6.670;2023-02-01T11:47:45;8.60;83.10
2941;DHT22;1480;51.456;6.670;2023-02-01T11:50:16;8.50;83.60
2941;DHT22;1480;51.456;6.670;2023-02-01T11:52:56;8.60;84.00
2941;DHT22;1480;51.456;6.670;2023-02-01T11:55:56;8.40;85.30
2941;DHT22;1480;51.456;6.670;2023-02-01T11:58:40;8.60;85.00
2941;DHT22;1480;51.456;6.670;2023-02-01T12:01:22;8.50;84.40
2941;DHT22;1480;51.456;6.670;2023-02-01T12:07:11;8.30;84.30
2941;DHT22;1480;51.456;6.670;2023-02-01T12:09:54;8.40;84.10
2941;DHT22;1480;51.456;6.670;2023-02-01T12:12:25;8.20;84.00
2941;DHT22;1480;51.456;6.670;2023-02-01T12:15:15;8.20;83.40
2941;DHT22;1480;51.456;6.670;2023-02-01T12:18:08;8.40;83.70
2941;DHT22;1480;51.456;6.670;2023-02-01T12:20:57;8.30;83.40
2941;DHT22;1480;51.456;6.670;2023-02-01T12:23:37;8.30;82.90
2941;DHT22;1480;51.456;6.670;2023-02-01T12:26:21;8.30;83.20
2941;DHT22;1480;51.456;6.670;2023-02-01T12:29:12;8.50;82.50
2941;DHT22;1480;51.456;6.670;2023-02-01T12:31:56;8.50;82.20
2941;DHT22;1480;51.456;6.670;2023-02-01T12:34:52;8.30;81.70
2941;DHT22;1480;51.456;6.670;2023-02-01T12:37:31;8.50;81.20
2941;DHT22;1480;51.456;6.670;2023-02-01T12:40:10;8.60;81.90
2941;DHT22;1480;51.456;6.670;2023-02-01T12:42:47;8.50;82.80
2941;DHT22;1480;51.456;6.670;2023-02-01T12:45:20;8.50;81.60
2941;DHT22;1480;51.456;6.670;2023-02-01T12:47:54;8.60;82.70
2941;DHT22;1480;51.456;6.670;2023-02-01T12:50:25;8.50;82.00
2941;DHT22;1480;51.456;6.670;2023-02-01T12:52:55;8.60;81.60
2941;DHT22;1480;51.456;6.670;2023-02-01T12:55:25;8.80;81.80
2941;DHT22;1480;51.456;6.670;2023-02-01T12:58:06;8.90;82.10
2941;DHT22;1480;51.456;6.670;2023-02-01T13:00:41;8.70;81.40
2941;DHT22;1480;51.456;6.670;2023-02-01T13:03:15;8.80;82.30
2941;DHT22;1480;51.456;6.670;2023-02-01T13:05:50;8.60;82.30
2941;DHT22;1480;51.456;6.670;2023-02-01T13:08:22;8.60;82.30
2941;DHT22;1480;51.456;6.670;2023-02-01T13:10:55;8.50;83.60
2941;DHT22;1480;51.456;6.670;2023-02-01T13:13:28;8.50;83.60
2941;DHT22;1480;51.456;6.670;2023-02-01T13:16:02;8.50;83.80
2941;DHT22;1480;51.456;6.670;2023-02-01T13:18:35;8.50;84.10
2941;DHT22;1480;51.456;6.670;2023-02-01T13:21:07;8.50;83.40
2941;DHT22;1480;51.456;6.670;2023-02-01T13:23:37;8.60;83.60
2941;DHT22;1480;51.456;6.670;2023-02-01T13:26:04;8.70;83.50
2941;DHT22;1480;51.456;6.670;2023-02-01T13:28:40;8.70;82.30
2941;DHT22;1480;51.456;6.670;2023-02-01T13:34:44;8.70;82.30
2941;DHT22;1480;51.456;6.670;2023-02-01T13:40:36;8.90;80.90
2941;DHT22;1480;51.456;6.670;2023-02-01T13:43:07;8.80;80.70
2941;DHT22;1480;51.456;6.670;2023-02-01T13:45:50;8.90;80.90
2941;DHT22;1480;51.456;6.670;2023-02-01T13:48:26;8.80;80.50
2941;DHT22;1480;51.456;6.670;2023-02-01T13:50:56;8.90;81.20
2941;DHT22;1480;51.456;6.670;2023-02-01T13:53:28;9.00;80.90
2941;DHT22;1480;51.456;6.670;2023-02-01T13:55:58;9.00;81.30
2941;DHT22;1480;51.456;6.670;2023-02-01T13:58:32;9.10;80.30
2941;DHT22;1480;51.456;6.670;2023-02-01T14:01:34;9.30;80.00
2941;DHT22;1480;51.456;6.670;2023-02-01T14:04:04;9.20;80.10
2941;DHT22;1480;51.456;6.670;2023-02-01T14:06:46;9.10;79.90
2941;DHT22;1480;51.456;6.670;2023-02-01T14:09:31;9.20;80.00
2941;DHT22;1480;51.456;6.670;2023-02-01T14:15:22;9.10;80.10
2941;DHT22;1480;51.456;6.670;2023-02-01T14:17:51;9.10;79.70
2941;DHT22;1480;51.456;6.670;2023-02-01T14:20:46;9.10;79.30
2941;DHT22;1480;51.456;6.670;2023-02-01T14:23:25;9.20;80.00
2941;DHT22;1480;51.456;6.670;2023-02-01T14:26:09;9.30;79.40
2941;DHT22;1480;51.456;6.670;2023-02-01T14:28:40;9.40;79.60
2941;DHT22;1480;51.456;6.670;2023-02-01T14:31:24;9.40;79.20
2941;DHT22;1480;51.456;6.670;2023-02-01T14:33:59;9.30;79.20
2941;DHT22;1480;51.456;6.670;2023-02-01T14:36:27;9.40;79.10
2941;DHT22;1480;51.456;6.670;2023-02-01T14:39:19;9.30;79.00
2941;DHT22;1480;51.456;6.670;2023-02-01T14:41:47;9.30;79.20
2941;DHT22;1480;51.456;6.670;2023-02-01T14:44:24;9.20;79.20
2941;DHT22;1480;51.456;6.670;2023-02-01T14:47:26;9.30;79.10
2941;DHT22;1480;51.456;6.670;2023-02-01T14:49:58;9.30;78.60
2941;DHT22;1480;51.456;6.670;2023-02-01T14:52:32;9.40;79.20
2941;DHT22;1480;51.456;6.670;2023-02-01T14:55:04;9.30;79.40
2941;DHT22;1480;51.456;6.670;2023-02-01T14:57:35;9.30;79.50
2941;DHT22;1480;51.456;6.670;2023-02-01T15:00:14;9.30;79.60
2941;DHT22;1480;51.456;6.670;2023-02-01T15:02:42;9.30;79.20
2941;DHT22;1480;51.456;6.670;2023-02-01T15:05:24;9.20;79.10
2941;DHT22;1480;51.456;6.670;2023-02-01T15:07:52;9.40;79.00
2941;DHT22;1480;51.456;6.670;2023-02-01T15:10:21;9.30;79.20
2941;DHT22;1480;51.456;6.670;2023-02-01T15:12:48;9.30;78.70
2941;DHT22;1480;51.456;6.670;2023-02-01T15:15:18;9.40;78.70
2941;DHT22;1480;51.456;6.670;2023-02-01T15:17:50;9.30;79.00
2941;DHT22;1480;51.456;6.670;2023-02-01T15:20:19;9.30;78.60
2941;DHT22;1480;51.456;6.670;2023-02-01T15:22:56;9.40;78.90
2941;DHT22;1480;51.456;6.670;2023-02-01T15:25:25;9.40;78.90
2941;DHT22;1480;51.456;6.670;2023-02-01T15:27:53;9.40;78.40
2941;DHT22;1480;51.456;6.670;2023-02-01T15:30:23;9.40;78.80
2941;DHT22;1480;51.456;6.670;2023-02-01T15:32:52;9.30;78.50
2941;DHT22;1480;51.456;6.670;2023-02-01T15:35:39;9.30;79.10
2941;DHT22;1480;51.456;6.670;2023-02-01T15:38:32;9.40;78.90
2941;DHT22;1480;51.456;6.670;2023-02-01T15:41:02;9.30;79.10
2941;DHT22;1480;51.456;6.670;2023-02-01T15:43:32;9.30;79.10
2941;DHT22;1480;51.456;6.670;2023-02-01T15:46:01;9.40;79.10
2941;DHT22;1480;51.456;6.670;2023-02-01T15:48:34;9.40;79.50
2941;DHT22;1480;51.456;6.670;2023-02-01T15:51:03;9.30;79.50
2941;DHT22;1480;51.456;6.670;2023-02-01T15:53:30;9.30;79.50
2941;DHT22;1480;51.456;6.670;2023-02-01T15:56:01;9.20;79.40
2941;DHT22;1480;51.456;6.670;2023-02-01T15:58:30;9.30;79.70
2941;DHT22;1480;51.456;6.670;2023-02-01T16:01:00;9.20;79.80
2941;DHT22;1480;51.456;6.670;2023-02-01T16:03:36;9.30;79.60
2941;DHT22;1480;51.456;6.670;2023-02-01T16:06:05;9.20;79.70
2941;DHT22;1480;51.456;6.670;2023-02-01T16:08:33;9.30;80.10
2941;DHT22;1480;51.456;6.670;2023-02-01T16:11:22;9.20;79.80
2941;DHT22;1480;51.456;6.670;2023-02-01T16:13:49;9.10;79.90
2941;DHT22;1480;51.456;6.670;2023-02-01T16:16:16;9.20;81.20
2941;DHT22;1480;51.456;6.670;2023-02-01T16:18:43;9.10;81.90
2941;DHT22;1480;51.456;6.670;2023-02-01T16:21:10;9.00;82.00
2941;DHT22;1480;51.456;6.670;2023-02-01T16:23:38;9.00;82.30
2941;DHT22;1480;51.456;6.670;2023-02-01T16:26:05;9.00;82.00
2941;DHT22;1480;51.456;6.670;2023-02-01T16:28:33;9.10;82.10
2941;DHT22;1480;51.456;6.670;2023-02-01T16:31:01;9.10;81.50
2941;DHT22;1480;51.456;6.670;2023-02-01T16:33:28;9.10;81.70
2941;DHT22;1480;51.456;6.670;2023-02-01T16:35:56;9.10;81.30
2941;DHT22;1480;51.456;6.670;2023-02-01T16:38:26;9.10;81.00
2941;DHT22;1480;51.456;6.670;2023-02-01T16:40:53;9.20;81.10
2941;DHT22;1480;51.456;6.670;2023-02-01T16:43:23;9.10;81.20
2941;DHT22;1480;51.456;6.670;2023-02-01T16:45:54;9.10;80.70
2941;DHT22;1480;51.456;6.670;2023-02-01T16:48:22;9.00;80.50
2941;DHT22;1480;51.456;6.670;2023-02-01T16:50:53;9.10;80.70
2941;DHT22;1480;51.456;6.670;2023-02-01T16:53:21;9.10;80.90
2941;DHT22;1480;51.456;6.670;2023-02-01T16:55:49;9.10;80.70
2941;DHT22;1480;51.456;6.670;2023-02-01T16:58:18;9.10;81.20
2941;DHT22;1480;51.456;6.670;2023-02-01T17:00:46;9.20;80.90
2941;DHT22;1480;51.456;6.670;2023-02-01T17:03:14;9.10;80.80
2941;DHT22;1480;51.456;6.670;2023-02-01T17:05:43;9.10;81.00